createdAt,value
2018-09-18T00:01:15.309Z,14.00
2018-09-18T00:03:50.877Z,14.00
2018-09-18T00:06:26.329Z,14.00
2018-09-18T00:09:02.172Z,14.00
2018-09-18T00:11:37.557Z,14.10
2018-09-18T00:14:13.064Z,14.00
2018-09-18T00:16:48.292Z,14.00
2018-09-18T00:19:24.267Z,14.00
2018-09-18T00:21:59.635Z,13.90
2018-09-18T00:24:35.160Z,13.90
2018-09-18T00:27:10.472Z,13.90
2018-09-18T00:29:46.045Z,13.90
2018-09-18T00:32:21.336Z,13.90
2018-09-18T00:34:56.836Z,13.80
2018-09-18T00:37:32.296Z,13.80
2018-09-18T00:40:08.446Z,13.80
2018-09-18T00:42:43.700Z,13.70
2018-09-18T00:45:19.212Z,13.70
2018-09-18T00:47:54.673Z,13.70
2018-09-18T00:50:30.528Z,13.70
2018-09-18T00:53:05.945Z,13.70
2018-09-18T00:55:41.418Z,13.70
2018-09-18T00:58:16.601Z,13.60
2018-09-18T01:00:52.016Z,13.60
2018-09-18T01:03:27.338Z,13.70
2018-09-18T01:06:02.788Z,13.60
2018-09-18T01:08:38.065Z,13.60
2018-09-18T01:11:13.576Z,13.60
2018-09-18T01:13:48.901Z,13.60
2018-09-18T01:16:24.392Z,13.50
2018-09-18T01:19:00.105Z,13.60
2018-09-18T01:21:35.561Z,13.50
2018-09-18T01:24:11.048Z,13.50
2018-09-18T01:26:46.559Z,13.40
2018-09-18T01:29:21.828Z,13.50
2018-09-18T01:31:57.343Z,13.40
2018-09-18T01:34:32.780Z,13.50
2018-09-18T01:37:08.232Z,13.50
2018-09-18T01:39:43.721Z,13.50
2018-09-18T01:42:19.222Z,13.50
2018-09-18T01:44:55.696Z,13.50
2018-09-18T01:47:31.349Z,13.50
2018-09-18T01:50:07.034Z,13.40
2018-09-18T01:52:42.441Z,13.40
2018-09-18T01:55:18.015Z,13.40
2018-09-18T01:57:53.574Z,13.40
2018-09-18T02:00:29.032Z,13.40
2018-09-18T02:03:04.627Z,13.50
2018-09-18T02:05:40.092Z,13.70
2018-09-18T02:08:15.523Z,13.70
2018-09-18T02:10:50.752Z,13.70
2018-09-18T02:13:26.313Z,13.70
2018-09-18T02:16:01.597Z,13.80
2018-09-18T02:18:37.609Z,13.90
2018-09-18T02:21:12.917Z,13.90
2018-09-18T02:23:48.546Z,13.90
2018-09-18T02:26:23.948Z,14.10
2018-09-18T02:28:59.395Z,14.10
2018-09-18T02:31:34.898Z,14.30
2018-09-18T02:34:10.424Z,14.40
2018-09-18T02:36:45.825Z,14.30
2018-09-18T02:39:21.282Z,14.30
2018-09-18T02:41:56.656Z,14.30
2018-09-18T02:44:32.177Z,14.30
2018-09-18T02:47:07.621Z,14.40
2018-09-18T02:49:43.355Z,14.40
2018-09-18T02:52:18.984Z,14.30
2018-09-18T02:54:54.559Z,14.30
2018-09-18T02:57:29.761Z,14.40
2018-09-18T03:00:05.857Z,14.40
2018-09-18T03:02:41.069Z,14.40
2018-09-18T03:05:16.658Z,14.40
2018-09-18T03:07:52.180Z,14.20
2018-09-18T03:10:27.746Z,14.20
2018-09-18T03:13:03.198Z,14.20
2018-09-18T03:15:38.948Z,14.20
2018-09-18T03:18:15.231Z,14.20
2018-09-18T03:20:51.280Z,14.20
2018-09-18T03:23:26.673Z,14.10
2018-09-18T03:26:02.254Z,14.20
2018-09-18T03:28:37.705Z,14.10
2018-09-18T03:31:13.240Z,14.00
2018-09-18T03:33:48.692Z,13.90
2018-09-18T03:36:24.234Z,13.90
2018-09-18T03:38:59.424Z,13.90
2018-09-18T03:41:35.497Z,13.80
2018-09-18T03:44:10.646Z,13.80
2018-09-18T03:46:46.874Z,13.80
2018-09-18T03:49:22.142Z,13.80
2018-09-18T03:51:57.655Z,13.80
2018-09-18T03:54:32.937Z,13.70
2018-09-18T03:57:08.483Z,13.70
2018-09-18T03:59:44.046Z,13.60
2018-09-18T04:02:19.413Z,13.60
2018-09-18T04:04:54.709Z,13.60
2018-09-18T04:07:30.415Z,13.50
2018-09-18T04:10:06.477Z,13.50
2018-09-18T04:12:42.395Z,13.40
2018-09-18T04:15:17.590Z,13.50
2018-09-18T04:17:53.155Z,13.40
2018-09-18T04:20:28.537Z,13.40
2018-09-18T04:23:04.001Z,13.40
2018-09-18T04:25:39.180Z,13.40
2018-09-18T04:28:14.674Z,13.40
2018-09-18T04:30:50.188Z,13.40
2018-09-18T04:33:25.673Z,13.40
2018-09-18T04:36:01.172Z,13.30
2018-09-18T04:38:36.861Z,13.30
2018-09-18T04:41:12.326Z,13.40
2018-09-18T04:43:47.862Z,13.30
2018-09-18T04:46:23.702Z,13.30
2018-09-18T04:48:59.366Z,13.30
2018-09-18T04:51:34.584Z,13.30
2018-09-18T04:54:10.257Z,13.20
2018-09-18T04:56:45.644Z,13.20
2018-09-18T04:59:21.150Z,13.20
2018-09-18T05:01:56.617Z,13.30
2018-09-18T05:04:32.130Z,13.30
2018-09-18T05:07:07.611Z,13.30
2018-09-18T05:09:43.333Z,13.40
2018-09-18T05:12:18.537Z,13.40
2018-09-18T05:14:54.117Z,13.30
2018-09-18T05:17:29.317Z,13.40
2018-09-18T05:20:05.110Z,13.40
2018-09-18T05:22:40.396Z,13.60
2018-09-18T05:25:16.011Z,13.70
2018-09-18T05:27:51.239Z,13.80
2018-09-18T05:30:26.697Z,13.80
2018-09-18T05:33:02.184Z,13.90
2018-09-18T05:35:37.785Z,14.00
2018-09-18T05:38:13.134Z,14.00
2018-09-18T05:40:48.673Z,14.00
2018-09-18T05:43:24.061Z,14.10
2018-09-18T05:45:59.572Z,14.20
2018-09-18T05:48:35.925Z,14.30
2018-09-18T05:51:11.513Z,14.50
2018-09-18T05:53:46.853Z,14.70
2018-09-18T05:56:22.470Z,14.80
2018-09-18T05:58:57.952Z,14.90
2018-09-18T06:01:33.570Z,15.10
2018-09-18T06:04:09.093Z,15.80
2018-09-18T06:06:44.776Z,16.50
2018-09-18T06:09:20.124Z,17.30
2018-09-18T06:11:55.670Z,18.00
2018-09-18T06:14:31.165Z,18.50
2018-09-18T06:17:06.544Z,19.00
2018-09-18T06:19:42.584Z,19.30
2018-09-18T06:22:18.152Z,19.40
2018-09-18T06:24:53.571Z,19.20
2018-09-18T06:27:29.190Z,19.40
2018-09-18T06:30:04.989Z,19.50
2018-09-18T06:32:40.964Z,19.80
2018-09-18T06:35:16.514Z,19.90
2018-09-18T06:37:52.117Z,20.00
2018-09-18T06:40:27.832Z,19.80
2018-09-18T06:43:03.465Z,19.70
2018-09-18T06:45:39.005Z,19.60
2018-09-18T06:48:14.652Z,19.90
2018-09-18T06:50:49.948Z,20.10
2018-09-18T06:53:25.457Z,20.40
2018-09-18T06:56:00.895Z,20.70
2018-09-18T06:58:36.433Z,20.70
2018-09-18T07:01:11.901Z,20.80
2018-09-18T07:03:47.528Z,20.90
2018-09-18T07:06:22.868Z,21.20
2018-09-18T07:08:58.447Z,21.30
2018-09-18T07:11:33.891Z,21.50
2018-09-18T07:14:09.512Z,21.60
2018-09-18T07:16:44.920Z,21.80
2018-09-18T07:19:20.508Z,21.80
2018-09-18T07:21:55.893Z,21.80
2018-09-18T07:24:31.265Z,21.50
2018-09-18T07:27:06.584Z,21.40
2018-09-18T07:29:42.184Z,21.60
2018-09-18T07:32:17.613Z,21.50
2018-09-18T07:34:53.077Z,21.40
2018-09-18T07:37:28.269Z,21.30
2018-09-18T07:40:04.071Z,20.90
2018-09-18T07:42:39.580Z,20.50
2018-09-18T07:45:15.157Z,19.90
2018-09-18T07:47:50.569Z,19.60
2018-09-18T07:50:26.157Z,19.50
2018-09-18T07:53:01.640Z,19.40
2018-09-18T07:55:37.357Z,19.40
2018-09-18T07:58:12.689Z,19.30
2018-09-18T08:00:48.545Z,19.30
2018-09-18T08:03:23.720Z,19.30
2018-09-18T08:05:59.129Z,19.40
2018-09-18T08:08:34.517Z,19.50
2018-09-18T08:11:10.225Z,19.70
2018-09-18T08:13:45.697Z,19.80
2018-09-18T08:16:21.323Z,20.00
2018-09-18T08:18:56.679Z,20.00
2018-09-18T08:21:32.324Z,20.20
2018-09-18T08:24:07.849Z,20.20
2018-09-18T08:26:43.396Z,20.30
2018-09-18T08:29:18.839Z,20.40
2018-09-18T08:31:54.409Z,20.40
2018-09-18T08:34:29.748Z,20.50
2018-09-18T08:37:05.513Z,20.70
2018-09-18T08:39:40.913Z,20.90
2018-09-18T08:42:16.598Z,20.90
2018-09-18T08:44:52.071Z,20.90
2018-09-18T08:47:27.709Z,20.90
2018-09-18T08:50:03.012Z,21.10
2018-09-18T08:52:38.762Z,21.30
2018-09-18T08:55:14.117Z,21.50
2018-09-18T08:57:49.797Z,21.70
2018-09-18T09:00:25.225Z,21.80
2018-09-18T09:03:00.799Z,22.00
2018-09-18T09:05:36.400Z,22.20
2018-09-18T09:08:12.209Z,22.20
2018-09-18T09:10:48.419Z,22.30
2018-09-18T09:13:24.012Z,22.40
2018-09-18T09:15:59.544Z,22.50
2018-09-18T09:18:34.948Z,22.70
2018-09-18T09:21:10.504Z,22.90
2018-09-18T09:23:46.092Z,23.10
2018-09-18T09:26:21.631Z,23.30
2018-09-18T09:28:56.968Z,23.50
2018-09-18T09:31:32.497Z,23.40
2018-09-18T09:34:07.960Z,23.40
2018-09-18T09:36:43.301Z,23.40
2018-09-18T09:39:18.881Z,23.60
2018-09-18T09:41:54.380Z,23.80
2018-09-18T09:44:30.013Z,23.70
2018-09-18T09:47:05.572Z,23.80
2018-09-18T09:49:41.233Z,24.00
2018-09-18T09:52:16.560Z,24.00
2018-09-18T09:54:52.032Z,24.00
2018-09-18T09:57:27.473Z,24.10
2018-09-18T10:00:02.916Z,24.30
2018-09-18T10:02:43.466Z,24.50
2018-09-18T10:05:19.674Z,24.60
2018-09-18T10:07:55.057Z,24.70
2018-09-18T10:10:30.623Z,24.80
2018-09-18T10:13:06.254Z,24.80
2018-09-18T10:15:41.722Z,24.90
2018-09-18T10:18:17.088Z,25.10
2018-09-18T10:20:52.857Z,25.40
2018-09-18T10:23:28.324Z,25.70
2018-09-18T10:26:03.864Z,25.90
2018-09-18T10:28:39.263Z,25.90
2018-09-18T10:31:14.932Z,26.00
2018-09-18T10:33:50.376Z,26.20
2018-09-18T10:36:25.945Z,26.30
2018-09-18T10:39:01.268Z,26.40
2018-09-18T10:41:36.736Z,26.40
2018-09-18T10:44:12.156Z,26.60
2018-09-18T10:46:47.609Z,26.60
2018-09-18T10:49:23.154Z,26.60
2018-09-18T10:51:58.677Z,26.70
2018-09-18T10:54:33.886Z,26.80
2018-09-18T10:57:09.371Z,26.90
2018-09-18T10:59:44.672Z,26.90
2018-09-18T11:02:20.277Z,27.10
2018-09-18T11:04:55.770Z,27.30
2018-09-18T11:07:31.559Z,27.30
2018-09-18T11:10:07.304Z,27.40
2018-09-18T11:12:42.887Z,27.60
2018-09-18T11:15:17.694Z,27.80
2018-09-18T11:17:52.667Z,27.60
2018-09-18T11:20:27.790Z,27.50
2018-09-18T11:23:03.316Z,27.60
2018-09-18T11:25:38.755Z,27.70
2018-09-18T11:28:14.097Z,27.90
2018-09-18T11:30:49.435Z,28.00
2018-09-18T11:33:24.884Z,28.20
2018-09-18T11:36:00.364Z,28.40
2018-09-18T11:38:35.980Z,28.40
2018-09-18T11:41:11.491Z,28.40
2018-09-18T11:43:47.381Z,28.50
2018-09-18T11:46:22.840Z,28.60
2018-09-18T11:48:58.502Z,28.60
2018-09-18T11:51:33.894Z,28.60
2018-09-18T11:54:09.461Z,28.70
2018-09-18T11:56:44.986Z,28.60
2018-09-18T11:59:20.664Z,28.70
2018-09-18T12:01:56.003Z,28.90
2018-09-18T12:04:31.562Z,28.90
2018-09-18T12:07:06.309Z,29.00
2018-09-18T12:09:41.133Z,29.00
2018-09-18T12:12:15.880Z,29.10
2018-09-18T12:14:51.600Z,29.20
2018-09-18T12:17:27.045Z,29.30
2018-09-18T12:20:02.997Z,29.30
2018-09-18T12:22:38.331Z,29.40
2018-09-18T12:25:13.893Z,29.40
2018-09-18T12:27:56.299Z,29.50
2018-09-18T12:30:31.741Z,29.60
2018-09-18T12:33:07.229Z,29.50
2018-09-18T12:35:42.991Z,29.40
2018-09-18T12:38:18.406Z,29.50
2018-09-18T12:40:53.933Z,29.60
2018-09-18T12:43:29.225Z,29.50
2018-09-18T12:46:05.127Z,29.50
2018-09-18T12:48:40.626Z,29.60
2018-09-18T12:51:16.216Z,29.60
2018-09-18T12:53:51.536Z,29.70
2018-09-18T12:56:27.248Z,29.60
2018-09-18T12:59:02.627Z,29.60
2018-09-18T13:01:38.340Z,29.60
2018-09-18T13:04:13.640Z,29.70
2018-09-18T13:06:49.609Z,29.70
2018-09-18T13:09:25.074Z,29.80
2018-09-18T13:12:00.714Z,29.80
2018-09-18T13:14:36.167Z,29.80
2018-09-18T13:17:11.707Z,29.80
2018-09-18T13:19:47.382Z,29.80
2018-09-18T13:22:23.019Z,29.80
2018-09-18T13:24:58.552Z,29.80
2018-09-18T13:27:34.358Z,29.80
2018-09-18T13:30:09.786Z,29.80
2018-09-18T13:32:45.519Z,29.80
2018-09-18T13:35:20.899Z,29.80
2018-09-18T13:37:56.484Z,29.90
2018-09-18T13:40:31.937Z,29.90
2018-09-18T13:43:06.986Z,29.90
2018-09-18T13:45:41.749Z,30.00
2018-09-18T13:48:17.251Z,30.00
2018-09-18T13:50:52.042Z,30.00
2018-09-18T13:53:26.935Z,30.10
2018-09-18T13:56:01.575Z,30.10
2018-09-18T13:58:36.626Z,30.10
2018-09-18T14:01:11.383Z,30.20
2018-09-18T14:03:46.274Z,30.20
2018-09-18T14:06:20.982Z,30.20
2018-09-18T14:08:55.970Z,30.10
2018-09-18T14:11:30.653Z,30.10
2018-09-18T14:14:05.456Z,30.10
2018-09-18T14:16:40.097Z,30.10
2018-09-18T14:19:14.928Z,30.00
2018-09-18T14:21:49.917Z,30.10
2018-09-18T14:24:24.872Z,30.10
2018-09-18T14:26:59.393Z,30.10
2018-09-18T14:29:34.424Z,30.10
2018-09-18T14:32:09.158Z,30.10
2018-09-18T14:34:44.135Z,30.00
2018-09-18T14:37:18.860Z,30.00
2018-09-18T14:39:53.676Z,30.00
2018-09-18T14:42:28.291Z,30.00
2018-09-18T14:45:03.942Z,30.00
2018-09-18T14:47:38.619Z,30.00
2018-09-18T14:50:13.572Z,30.00
2018-09-18T14:52:48.152Z,30.00
2018-09-18T14:55:23.078Z,29.90
2018-09-18T14:57:57.824Z,29.90
2018-09-18T15:00:33.028Z,29.80
2018-09-18T15:03:07.873Z,29.80
2018-09-18T15:05:42.672Z,29.80
2018-09-18T15:08:17.397Z,29.80
2018-09-18T15:10:52.499Z,29.80
2018-09-18T15:13:27.349Z,29.80
2018-09-18T15:16:02.311Z,29.70
2018-09-18T15:18:37.001Z,29.70
2018-09-18T15:21:12.200Z,29.60
2018-09-18T15:23:46.880Z,29.60
2018-09-18T15:26:21.524Z,29.60
2018-09-18T15:28:56.136Z,29.50
2018-09-18T15:31:31.008Z,29.50
2018-09-18T15:34:05.810Z,29.40
2018-09-18T15:36:40.772Z,29.40
2018-09-18T15:39:15.363Z,29.40
2018-09-18T15:41:50.309Z,29.30
2018-09-18T15:44:25.130Z,29.30
2018-09-18T15:47:00.097Z,29.20
2018-09-18T15:49:34.773Z,29.10
2018-09-18T15:52:09.667Z,29.10
2018-09-18T15:54:44.340Z,29.10
2018-09-18T15:57:19.124Z,29.00
2018-09-18T15:59:53.708Z,28.90
2018-09-18T16:02:28.580Z,28.80
2018-09-18T16:05:03.116Z,28.70
2018-09-18T16:07:37.931Z,28.80
2018-09-18T16:10:12.735Z,28.70
2018-09-18T16:12:47.596Z,28.70
2018-09-18T16:15:22.471Z,28.60
2018-09-18T16:17:57.426Z,28.50
2018-09-18T16:20:32.223Z,28.50
2018-09-18T16:23:07.057Z,28.40
2018-09-18T16:25:41.589Z,28.40
2018-09-18T16:28:16.371Z,28.30
2018-09-18T16:30:51.205Z,28.20
2018-09-18T16:33:26.025Z,28.20
2018-09-18T16:36:00.773Z,28.20
2018-09-18T16:38:36.976Z,28.00
2018-09-18T16:41:12.459Z,27.90
2018-09-18T16:43:47.996Z,27.80
2018-09-18T16:46:23.525Z,27.80
2018-09-18T16:48:59.198Z,27.70
2018-09-18T16:51:34.776Z,27.60
2018-09-18T16:54:10.337Z,27.60
2018-09-18T16:56:45.762Z,27.50
2018-09-18T16:59:21.647Z,27.40
2018-09-18T17:01:57.782Z,27.30
2018-09-18T17:04:33.665Z,27.10
2018-09-18T17:07:09.070Z,27.00
2018-09-18T17:09:44.590Z,26.90
2018-09-18T17:12:20.436Z,26.80
2018-09-18T17:14:56.105Z,26.50
2018-09-18T17:17:31.613Z,26.20
2018-09-18T17:20:07.511Z,25.80
2018-09-18T17:22:42.673Z,25.50
2018-09-18T17:25:18.289Z,25.20
2018-09-18T17:27:53.625Z,24.80
2018-09-18T17:30:29.220Z,24.50
2018-09-18T17:33:04.760Z,24.20
2018-09-18T17:35:40.540Z,24.00
2018-09-18T17:38:16.030Z,23.80
2018-09-18T17:40:51.577Z,23.60
2018-09-18T17:43:27.076Z,23.40
2018-09-18T17:46:02.761Z,23.30
2018-09-18T17:48:37.942Z,23.10
2018-09-18T17:51:13.560Z,22.90
2018-09-18T17:53:49.340Z,22.70
2018-09-18T17:56:24.877Z,22.60
2018-09-18T17:59:00.217Z,22.50
2018-09-18T18:01:35.653Z,22.40
2018-09-18T18:04:11.112Z,22.20
2018-09-18T18:06:46.594Z,22.10
2018-09-18T18:09:22.144Z,22.00
2018-09-18T18:11:57.768Z,22.00
2018-09-18T18:14:33.271Z,21.80
2018-09-18T18:17:08.953Z,21.80
2018-09-18T18:19:44.576Z,21.60
2018-09-18T18:22:20.348Z,21.50
2018-09-18T18:24:55.810Z,21.30
2018-09-18T18:27:31.282Z,21.20
2018-09-18T18:30:07.079Z,21.10
2018-09-18T18:32:49.200Z,21.10
2018-09-18T18:35:24.595Z,21.00
2018-09-18T18:37:59.988Z,20.90
2018-09-18T18:40:35.435Z,20.80
2018-09-18T18:43:11.079Z,20.80
2018-09-18T18:45:46.374Z,20.70
2018-09-18T18:48:22.053Z,20.60
2018-09-18T18:50:57.285Z,20.50
2018-09-18T18:53:32.758Z,20.50
2018-09-18T18:56:08.072Z,20.40
2018-09-18T18:58:43.655Z,20.40
2018-09-18T19:01:18.987Z,20.30
2018-09-18T19:03:54.740Z,20.20
2018-09-18T19:06:30.385Z,20.20
2018-09-18T19:09:07.788Z,20.10
2018-09-18T19:11:43.059Z,20.00
2018-09-18T19:14:18.611Z,20.00
2018-09-18T19:16:53.935Z,20.00
2018-09-18T19:19:29.569Z,19.90
2018-09-18T19:22:05.052Z,19.80
2018-09-18T19:24:40.658Z,19.80
2018-09-18T19:27:16.240Z,19.70
2018-09-18T19:29:52.075Z,19.60
2018-09-18T19:32:27.376Z,19.60
2018-09-18T19:35:03.058Z,19.60
2018-09-18T19:37:38.514Z,19.60
2018-09-18T19:40:14.054Z,19.60
2018-09-18T19:42:49.564Z,19.50
2018-09-18T19:45:25.188Z,19.40
2018-09-18T19:48:00.743Z,19.40
2018-09-18T19:50:37.416Z,19.30
2018-09-18T19:53:12.833Z,19.30
2018-09-18T19:55:48.213Z,19.20
2018-09-18T19:58:23.634Z,19.20
2018-09-18T20:00:59.353Z,19.20
2018-09-18T20:03:34.824Z,19.10
2018-09-18T20:06:10.361Z,19.10
2018-09-18T20:08:45.640Z,19.00
2018-09-18T20:11:21.074Z,19.00
2018-09-18T20:13:56.603Z,18.90
2018-09-18T20:16:32.152Z,18.80
2018-09-18T20:19:07.703Z,18.80
2018-09-18T20:21:43.429Z,18.70
2018-09-18T20:24:18.804Z,18.70
2018-09-18T20:26:54.313Z,18.70
2018-09-18T20:29:29.619Z,18.60
2018-09-18T20:32:05.319Z,18.60
2018-09-18T20:34:40.780Z,18.50
2018-09-18T20:37:16.320Z,18.40
2018-09-18T20:39:51.773Z,18.30
2018-09-18T20:42:27.497Z,18.30
2018-09-18T20:45:03.005Z,18.20
2018-09-18T20:47:38.709Z,18.20
2018-09-18T20:50:14.133Z,18.20
2018-09-18T20:52:50.099Z,18.20
2018-09-18T20:55:25.825Z,18.20
2018-09-18T20:58:01.157Z,18.20
2018-09-18T21:00:36.442Z,18.10
2018-09-18T21:03:11.961Z,18.10
2018-09-18T21:05:47.519Z,18.10
2018-09-18T21:08:23.113Z,18.00
2018-09-18T21:10:59.054Z,17.90
2018-09-18T21:13:34.765Z,17.80
2018-09-18T21:16:10.129Z,17.70
2018-09-18T21:18:45.595Z,17.70
2018-09-18T21:21:21.179Z,17.60
2018-09-18T21:23:56.685Z,17.70
2018-09-18T21:26:32.187Z,17.60
2018-09-18T21:29:07.651Z,17.50
2018-09-18T21:31:43.109Z,17.50
2018-09-18T21:34:18.757Z,17.50
2018-09-18T21:36:54.386Z,17.40
2018-09-18T21:39:29.957Z,17.40
2018-09-18T21:42:05.330Z,17.40
2018-09-18T21:44:40.934Z,17.40
2018-09-18T21:47:16.299Z,17.30
2018-09-18T21:49:51.582Z,17.20
2018-09-18T21:52:27.265Z,17.20
2018-09-18T21:55:02.946Z,17.20
2018-09-18T21:57:38.346Z,17.20
2018-09-18T22:00:13.993Z,17.20
2018-09-18T22:02:49.431Z,17.10
2018-09-18T22:05:25.154Z,17.10
2018-09-18T22:08:01.679Z,17.10
2018-09-18T22:10:37.137Z,17.10
2018-09-18T22:13:12.398Z,17.10
2018-09-18T22:15:47.936Z,17.00
2018-09-18T22:18:23.202Z,16.90
2018-09-18T22:20:58.897Z,16.90
2018-09-18T22:23:34.381Z,16.80
2018-09-18T22:26:09.868Z,16.80
2018-09-18T22:28:45.287Z,16.80
2018-09-18T22:31:20.757Z,16.80
2018-09-18T22:33:55.940Z,16.70
2018-09-18T22:36:31.454Z,16.80
2018-09-18T22:39:08.824Z,16.70
2018-09-18T22:41:44.146Z,16.70
2018-09-18T22:44:19.397Z,16.70
2018-09-18T22:46:54.894Z,16.60
2018-09-18T22:49:30.359Z,16.50
2018-09-18T22:52:05.813Z,16.60
2018-09-18T22:54:41.161Z,16.50
2018-09-18T22:57:16.629Z,16.60
2018-09-18T22:59:52.342Z,16.60
2018-09-18T23:02:27.881Z,16.60
2018-09-18T23:05:03.333Z,16.60
2018-09-18T23:07:38.893Z,16.60
2018-09-18T23:10:14.404Z,16.70
2018-09-18T23:12:49.894Z,16.60
2018-09-18T23:15:25.125Z,16.60
2018-09-18T23:18:00.808Z,16.60
2018-09-18T23:20:36.325Z,16.60
2018-09-18T23:23:12.056Z,16.60
2018-09-18T23:25:47.441Z,16.60
2018-09-18T23:28:22.857Z,16.60
2018-09-18T23:30:58.172Z,16.60
2018-09-18T23:33:33.633Z,16.60
2018-09-18T23:36:08.995Z,16.60
2018-09-18T23:38:45.339Z,16.50
2018-09-18T23:41:20.722Z,16.50
2018-09-18T23:43:56.336Z,16.50
2018-09-18T23:46:31.839Z,16.50
2018-09-18T23:49:07.325Z,16.40
2018-09-18T23:51:42.803Z,16.30
2018-09-18T23:54:18.421Z,16.30
2018-09-18T23:56:53.748Z,16.30
2018-09-18T23:59:29.322Z,16.30
